Time;durP1;ratioP1;P1;durP2;ratioP2;P2;SDS_P1;SDS_P2;PMS_P1;PMS_P2;Temp;Humidity;BMP_temperature;BMP_pressure;BME280_temperature;BME280_humidity;BME280_pressure;Samples;Min_cycle;Max_cycle;Signal;HPM_P1;HPM_P2
2023/04/13 00:01:48;;;;;;;1.50;1.00;;;;;;;8.90;75.18;95571.03;4938750;29;20052;-81
2023/04/13 00:04:17;;;;;;;0.85;0.30;;;;;;;8.90;75.37;95576.25;4937888;29;20068;-80
2023/04/13 00:06:49;;;;;;;0.22;0.22;;;;;;;8.85;72.45;95578.59;4937872;29;20052;-80
2023/04/13 00:09:18;;;;;;;0.20;0.13;;;;;;;8.83;74.41;95565.00;4937736;29;20067;-80
2023/04/13 00:11:47;;;;;;;1.40;0.20;;;;;;;8.85;75.58;95558.63;4937054;29;20300;-80
2023/04/13 00:14:17;;;;;;;0.38;0.10;;;;;;;8.83;73.60;95565.00;4936948;29;20063;-80
2023/04/13 00:16:46;;;;;;;0.35;0.20;;;;;;;8.81;74.67;95567.00;4929642;29;20420;-80
2023/04/13 00:19:16;;;;;;;0.73;0.50;;;;;;;8.79;73.62;95574.19;4917664;29;20072;-80
2023/04/13 00:21:45;;;;;;;0.17;0.17;;;;;;;8.78;75.38;95576.00;4916987;29;20076;-79
2023/04/13 00:24:15;;;;;;;0.25;0.15;;;;;;;8.80;75.39;95584.41;4917026;29;20125;-80
2023/04/13 00:26:44;;;;;;;0.28;0.20;;;;;;;8.81;75.00;95585.19;4917081;29;20056;-79
2023/04/13 00:29:12;;;;;;;0.50;0.40;;;;;;;8.81;73.91;95580.81;4917318;29;20409;-80
2023/04/13 00:31:40;;;;;;;0.60;0.40;;;;;;;8.79;74.61;95582.81;4917501;29;20055;-80
2023/04/13 00:34:09;;;;;;;1.35;0.38;;;;;;;8.79;73.58;95585.41;4917099;29;20104;-80
2023/04/13 00:36:37;;;;;;;0.80;0.20;;;;;;;8.79;74.22;95587.19;4916906;29;20052;-80
2023/04/13 00:39:06;;;;;;;0.20;0.10;;;;;;;8.78;73.70;95583.00;4917184;29;20055;-79
2023/04/13 00:41:36;;;;;;;1.58;0.20;;;;;;;8.78;75.44;95590.78;4917308;29;20079;-80
2023/04/13 00:44:04;;;;;;;1.40;0.17;;;;;;;8.76;75.03;95590.97;4917580;29;20052;-79
2023/04/13 00:46:33;;;;;;;0.20;0.20;;;;;;;8.75;76.04;95588.59;4917422;29;20488;-79
2023/04/13 00:49:02;;;;;;;13.77;8.77;;;;;;;8.76;76.35;95585.78;4916844;29;20535;-79
2023/04/13 00:51:31;;;;;;;22.48;12.80;;;;;;;8.74;74.83;95582.56;4916922;29;20060;-80
2023/04/13 00:54:00;;;;;;;24.65;16.73;;;;;;;8.73;75.05;95593.19;4916642;29;20056;-80
2023/04/13 00:56:28;;;;;;;7.28;4.70;;;;;;;8.72;75.01;95591.56;4916344;29;20070;-79
2023/04/13 00:58:58;;;;;;;2.17;1.00;;;;;;;8.74;76.24;95597.38;4916887;29;20489;-79
2023/04/13 01:01:29;;;;;;;0.57;0.40;;;;;;;8.71;73.78;95592.59;4917045;29;20058;-79
2023/04/13 01:03:58;;;;;;;1.10;0.30;;;;;;;8.70;75.08;95609.16;4917126;29;20148;-80
2023/04/13 01:06:32;;;;;;;0.20;0.20;;;;;;;8.72;73.51;95617.56;4916717;29;20070;-79
2023/04/13 01:09:07;;;;;;;1.40;0.25;;;;;;;8.69;73.04;95623.16;4916911;29;20133;-79
2023/04/13 01:11:40;;;;;;;0.85;0.40;;;;;;;8.69;75.24;95626.56;4916801;29;20143;-80
2023/04/13 01:14:16;;;;;;;0.40;0.25;;;;;;;8.70;77.07;95640.34;4916922;29;20567;-80
2023/04/13 01:16:52;;;;;;;2.50;0.40;;;;;;;8.69;77.14;95649.16;4916631;29;20082;-80
2023/04/13 01:19:32;;;;;;;1.55;0.30;;;;;;;8.71;78.06;95639.38;4917001;29;20147;-79
2023/04/13 01:22:02;;;;;;;0.38;0.30;;;;;;;8.67;75.56;95644.16;4916529;29;20080;-80
2023/04/13 01:24:40;;;;;;;0.15;0.15;;;;;;;8.58;71.87;95647.91;4916588;29;20107;-80
2023/04/13 01:27:15;;;;;;;2.65;0.40;;;;;;;8.52;74.50;95638.28;4916788;29;20056;-79
2023/04/13 01:29:47;;;;;;;0.25;0.20;;;;;;;8.47;73.65;95617.28;4916910;29;20492;-79
2023/04/13 01:32:16;;;;;;;0.63;0.57;;;;;;;8.46;75.47;95611.25;4917235;29;20056;-80
2023/04/13 01:34:44;;;;;;;1.02;0.50;;;;;;;8.49;76.30;95605.69;4922543;29;20297;-81
2023/04/13 01:37:13;;;;;;;1.60;0.38;;;;;;;8.50;73.45;95593.47;4932927;29;20072;-80
2023/04/13 01:39:41;;;;;;;0.55;0.40;;;;;;;8.46;74.06;95595.66;4934978;29;20068;-80
2023/04/13 01:42:09;;;;;;;0.40;0.40;;;;;;;8.49;76.16;95591.91;4921125;29;20524;-80
2023/04/13 01:44:37;;;;;;;0.65;0.40;;;;;;;8.47;72.67;95588.69;4920199;29;20062;-80
2023/04/13 01:47:15;;;;;;;1.05;0.20;;;;;;;8.40;70.23;95592.03;4920166;29;20052;-80
2023/04/13 01:49:48;;;;;;;0.45;0.20;;;;;;;8.42;74.25;95591.88;4919976;29;20107;-80
2023/04/13 01:52:17;;;;;;;0.13;0.10;;;;;;;8.42;72.72;95595.25;4919919;29;20063;-79
2023/04/13 01:54:50;;;;;;;1.98;0.20;;;;;;;8.41;70.83;95592.84;4919958;29;20062;-80
2023/04/13 01:57:18;;;;;;;1.23;0.43;;;;;;;8.44;73.79;95597.66;4919722;29;20075;-80
2023/04/13 01:59:47;;;;;;;0.60;0.20;;;;;;;8.46;73.09;95595.66;4919665;29;20107;-80
2023/04/13 02:02:17;;;;;;;1.30;0.30;;;;;;;8.47;74.51;95592.06;4919892;29;20056;-80
2023/04/13 02:04:46;;;;;;;0.93;0.15;;;;;;;8.49;73.63;95577.09;4920232;29;20058;-79
2023/04/13 02:07:15;;;;;;;1.95;0.30;;;;;;;8.46;71.83;95585.25;4919822;29;20412;-80
2023/04/13 02:09:44;;;;;;;0.20;0.20;;;;;;;8.42;71.68;95584.88;4919858;29;20083;-80
2023/04/13 02:12:12;;;;;;;0.85;0.30;;;;;;;8.41;72.01;95583.25;4919642;29;20116;-81
2023/04/13 02:14:41;;;;;;;0.35;0.25;;;;;;;8.44;73.55;95592.47;4919757;29;20147;-80
2023/04/13 02:17:09;;;;;;;0.63;0.30;;;;;;;8.40;72.46;95586.84;4919441;29;20147;-80
2023/04/13 02:19:39;;;;;;;3.58;0.17;;;;;;;8.42;73.89;95592.66;4919625;29;20083;-80
2023/04/13 02:22:07;;;;;;;1.10;0.32;;;;;;;8.44;74.75;95595.88;4919555;29;20067;-79
2023/04/13 02:24:36;;;;;;;0.82;0.30;;;;;;;8.42;72.18;95602.25;4919551;29;20052;-80
2023/04/13 02:27:04;;;;;;;0.68;0.30;;;;;;;8.38;72.31;95598.41;4919079;29;20056;-79
2023/04/13 02:29:33;;;;;;;0.40;0.20;;;;;;;8.39;72.80;95600.00;4919044;29;20142;-80
2023/04/13 02:32:02;;;;;;;1.40;0.40;;;;;;;8.38;72.03;95601.00;4918983;29;20048;-80
2023/04/13 02:34:31;;;;;;;1.17;0.15;;;;;;;8.34;73.93;95600.56;4919233;29;20297;-80
2023/04/13 02:37:01;;;;;;;0.40;0.20;;;;;;;8.35;74.50;95598.78;4918931;29;20520;-80
2023/04/13 02:39:29;;;;;;;0.85;0.68;;;;;;;8.37;74.66;95594.19;4919183;29;20151;-79
2023/04/13 02:41:57;;;;;;;0.57;0.35;;;;;;;8.37;74.37;95591.59;4919126;29;20419;-80
2023/04/13 02:44:26;;;;;;;0.52;0.30;;;;;;;8.36;74.44;95593.38;4918280;29;20148;-79
2023/04/13 02:46:54;;;;;;;1.00;0.20;;;;;;;8.34;74.09;95603.19;4918838;29;20103;-79
2023/04/13 02:49:23;;;;;;;0.30;0.22;;;;;;;8.33;73.49;95609.38;4919019;29;20075;-80
2023/04/13 02:51:51;;;;;;;0.55;0.38;;;;;;;8.36;75.00;95603.00;4918746;29;20543;-80
2023/04/13 02:54:21;;;;;;;0.90;0.22;;;;;;;8.35;75.21;95598.78;4919126;29;20531;-80
2023/04/13 02:56:49;;;;;;;2.53;0.38;;;;;;;8.30;71.30;95599.34;4918469;29;20151;-80
2023/04/13 02:59:17;;;;;;;2.03;0.55;;;;;;;8.20;68.68;95602.31;4918867;29;20055;-80
2023/04/13 03:01:46;;;;;;;0.88;0.57;;;;;;;8.21;73.41;95609.09;4918938;29;20056;-80
2023/04/13 03:04:14;;;;;;;2.25;0.40;;;;;;;8.20;71.85;95614.50;4918531;29;20067;-80
2023/04/13 03:06:44;;;;;;;1.50;0.60;;;;;;;8.16;71.98;95621.88;4918532;29;20052;-80
2023/04/13 03:09:13;;;;;;;2.88;0.85;;;;;;;8.08;68.53;95623.81;4918306;29;20103;-80
2023/04/13 03:11:42;;;;;;;1.38;0.73;;;;;;;7.94;66.87;95617.72;4918233;29;20055;-80
2023/04/13 03:14:11;;;;;;;0.63;0.40;;;;;;;7.80;66.70;95609.03;4918278;29;20435;-80
2023/04/13 03:16:39;;;;;;;0.73;0.25;;;;;;;7.65;65.71;95611.69;4918057;29;20056;-80
2023/04/13 03:19:07;;;;;;;2.92;1.02;;;;;;;7.50;65.23;95621.34;4918633;29;20056;-80
2023/04/13 03:21:35;;;;;;;2.65;1.02;;;;;;;7.45;69.69;95608.13;4918114;29;20055;-79
2023/04/13 03:24:02;;;;;;;2.63;1.15;;;;;;;7.43;67.36;95611.75;4918223;29;20052;-79
2023/04/13 03:26:30;;;;;;;4.10;1.75;;;;;;;7.43;68.95;95616.94;4918069;29;20401;-79
2023/04/13 03:29:00;;;;;;;2.40;1.27;;;;;;;7.46;70.37;95626.13;4918097;29;20107;-80
2023/04/13 03:31:28;;;;;;;2.72;1.27;;;;;;;7.51;71.54;95617.78;4918077;29;20418;-79
2023/04/13 03:33:57;;;;;;;20.98;2.90;;;;;;;7.55;69.66;95625.00;4917999;29;20287;-79
2023/04/13 03:36:27;;;;;;;6.90;2.47;;;;;;;7.56;69.02;95626.59;4918064;29;20479;-80
2023/04/13 03:38:56;;;;;;;2.30;1.30;;;;;;;7.60;69.03;95637.41;4917891;29;20052;-80
2023/04/13 03:41:25;;;;;;;4.85;0.90;;;;;;;7.66;70.88;95636.69;4917856;29;20055;-79
2023/04/13 03:43:53;;;;;;;1.02;0.60;;;;;;;7.69;71.88;95641.47;4917689;29;20138;-79
2023/04/13 03:46:22;;;;;;;1.10;0.32;;;;;;;7.75;73.50;95638.13;4917703;29;20100;-78
2023/04/13 03:48:50;;;;;;;2.17;0.40;;;;;;;7.76;71.10;95637.16;4917074;29;20420;-78
2023/04/13 03:51:17;;;;;;;2.90;0.47;;;;;;;7.77;72.32;95633.56;4917164;29;20051;-78
2023/04/13 03:53:46;;;;;;;2.80;0.47;;;;;;;7.77;70.11;95635.38;4916824;29;20432;-78
2023/04/13 03:56:13;;;;;;;2.40;0.50;;;;;;;7.77;71.55;95638.75;4917035;29;20059;-78
2023/04/13 03:58:41;;;;;;;1.85;0.40;;;;;;;7.73;70.95;95629.75;4916792;29;20130;-78
2023/04/13 04:01:09;;;;;;;1.73;0.43;;;;;;;7.70;71.16;95632.72;4916616;29;20500;-78
2023/04/13 04:03:38;;;;;;;0.88;0.50;;;;;;;7.69;70.36;95638.88;4916890;29;20147;-78
2023/04/13 04:06:07;;;;;;;2.90;0.77;;;;;;;7.70;70.43;95637.13;4916968;29;20052;-79
2023/04/13 04:08:34;;;;;;;2.97;1.75;;;;;;;7.69;70.86;95635.50;4916969;29;20579;-79
2023/04/13 04:11:03;;;;;;;5.57;2.83;;;;;;;7.67;71.78;95633.06;4916647;29;20063;-79
2023/04/13 04:13:30;;;;;;;8.93;2.40;;;;;;;7.68;73.05;95628.72;4916582;29;20056;-79
2023/04/13 04:15:58;;;;;;;3.90;1.50;;;;;;;7.66;68.98;95625.50;4916682;29;20091;-79
2023/04/13 04:18:26;;;;;;;1.10;0.60;;;;;;;7.54;65.91;95617.41;4916706;29;20056;-79
2023/04/13 04:20:55;;;;;;;2.90;1.00;;;;;;;7.38;65.74;95619.25;4917057;29;20048;-79
2023/04/13 04:23:27;;;;;;;1.95;0.68;;;;;;;7.30;65.62;95610.78;4916823;29;20067;-79
2023/04/13 04:25:58;;;;;;;0.82;0.82;;;;;;;7.20;67.51;95611.09;4916831;29;20052;-78
2023/04/13 04:28:29;;;;;;;1.65;0.77;;;;;;;7.20;67.99;95618.88;4916855;29;20048;-79
2023/04/13 04:31:00;;;;;;;1.65;0.70;;;;;;;7.17;68.85;95634.81;4916941;29;20056;-79
2023/04/13 04:33:27;;;;;;;2.13;0.57;;;;;;;7.21;70.72;95636.03;4916851;29;20197;-78
2023/04/13 04:35:56;;;;;;;2.42;0.70;;;;;;;7.20;68.83;95637.84;4916551;29;20531;-78
2023/04/13 04:38:24;;;;;;;0.57;0.20;;;;;;;7.18;68.86;95634.63;4916690;29;20055;-79
2023/04/13 04:40:56;;;;;;;0.85;0.40;;;;;;;7.17;69.30;95635.63;4916690;29;20083;-78
2023/04/13 04:43:25;;;;;;;0.50;0.30;;;;;;;7.19;70.87;95638.84;4916623;29;20107;-78
2023/04/13 04:45:56;;;;;;;1.30;0.75;;;;;;;7.17;70.04;95638.22;4921302;29;20120;-78
2023/04/13 04:48:25;;;;;;;1.60;0.30;;;;;;;7.19;71.62;95644.03;4932430;29;20523;-78
2023/04/13 04:50:54;;;;;;;0.77;0.40;;;;;;;7.17;68.69;95647.78;4931278;29;20052;-78
2023/04/13 04:53:24;;;;;;;0.68;0.43;;;;;;;7.19;70.50;95651.00;4917584;29;20075;-78
2023/04/13 04:55:51;;;;;;;0.82;0.50;;;;;;;7.21;71.58;95654.19;4916753;29;20051;-79
2023/04/13 04:58:19;;;;;;;0.20;0.20;;;;;;;7.17;68.58;95665.94;4916917;29;20075;-79
2023/04/13 05:00:48;;;;;;;2.28;0.60;;;;;;;7.14;72.27;95668.91;4916568;29;20056;-79
2023/04/13 05:03:16;;;;;;;1.67;0.40;;;;;;;7.20;72.77;95657.78;4916475;29;20052;-79
2023/04/13 05:05:43;;;;;;;1.25;0.30;;;;;;;7.22;71.45;95661.81;4916330;29;20501;-78
2023/04/13 05:08:12;;;;;;;2.55;0.50;;;;;;;7.22;69.52;95661.00;4918688;29;20139;-78
2023/04/13 05:10:45;;;;;;;1.35;0.50;;;;;;;7.20;69.41;95657.78;4920673;29;20140;-79
2023/04/13 05:13:12;;;;;;;0.93;0.65;;;;;;;7.22;71.45;95661.81;4920165;29;20058;-79
2023/04/13 05:15:40;;;;;;;1.02;0.50;;;;;;;7.22;70.07;95664.41;4920296;29;20048;-78
2023/04/13 05:18:07;;;;;;;1.52;1.00;;;;;;;7.27;73.00;95663.84;4920180;29;20059;-79
2023/04/13 05:20:36;;;;;;;2.58;0.60;;;;;;;7.31;72.27;95665.09;4920178;29;20062;-79
2023/04/13 05:23:04;;;;;;;0.50;0.43;;;;;;;7.33;72.44;95657.94;4920146;29;20052;-78
2023/04/13 05:25:31;;;;;;;2.08;0.40;;;;;;;7.37;73.14;95653.97;4920352;29;20052;-78
2023/04/13 05:28:00;;;;;;;0.82;0.38;;;;;;;7.42;71.96;95672.38;4919918;29;20051;-78
2023/04/13 05:30:28;;;;;;;1.23;0.30;;;;;;;7.45;72.49;95667.81;4920240;29;20063;-79
2023/04/13 05:32:55;;;;;;;1.23;0.43;;;;;;;7.50;73.79;95666.28;4919494;29;20052;-79
2023/04/13 05:35:26;;;;;;;0.77;0.40;;;;;;;7.54;72.35;95664.09;4919878;29;20052;-78
2023/04/13 05:37:54;;;;;;;1.15;0.60;;;;;;;7.56;71.83;95665.53;4919883;29;20052;-79
2023/04/13 05:40:23;;;;;;;0.50;0.40;;;;;;;7.62;72.64;95671.78;4920256;29;20048;-78
2023/04/13 05:42:51;;;;;;;0.50;0.30;;;;;;;7.68;71.97;95673.63;4919999;29;20078;-79
2023/04/13 05:45:20;;;;;;;1.17;0.60;;;;;;;7.71;71.18;95664.66;4920192;29;20084;-79
2023/04/13 05:47:47;;;;;;;1.42;0.82;;;;;;;7.78;72.60;95676.72;4921869;29;20504;-78
2023/04/13 05:50:15;;;;;;;1.92;0.80;;;;;;;7.84;72.64;95673.34;4921499;29;20056;-79
2023/04/13 05:52:43;;;;;;;1.65;0.90;;;;;;;7.91;73.42;95680.41;4920190;29;20131;-79
2023/04/13 05:55:11;;;;;;;0.65;0.65;;;;;;;7.91;68.95;95685.59;4919734;29;20509;-78
2023/04/13 05:57:39;;;;;;;5.38;1.50;;;;;;;7.84;67.32;95686.34;4919668;29;20052;-79
2023/04/13 06:00:09;;;;;;;2.92;0.80;;;;;;;7.81;67.14;95684.13;4919178;29;20084;-78
2023/04/13 06:02:39;;;;;;;1.98;0.95;;;;;;;7.77;65.16;95679.50;4919302;29;20056;-78
2023/04/13 06:05:07;;;;;;;2.33;1.33;;;;;;;7.72;65.28;95687.84;4919586;29;20056;-79
2023/04/13 06:07:35;;;;;;;2.33;1.23;;;;;;;7.74;68.53;95688.47;4919339;29;20401;-78
2023/04/13 06:10:03;;;;;;;4.00;1.55;;;;;;;7.79;67.59;95699.09;4919271;29;20084;-79
2023/04/13 06:12:32;;;;;;;2.95;1.70;;;;;;;7.84;68.58;95685.53;4918616;29;20052;-78
2023/04/13 06:14:59;;;;;;;3.28;1.85;;;;;;;7.88;68.14;95693.78;4919324;29;20424;-78
2023/04/13 06:17:27;;;;;;;2.58;2.00;;;;;;;7.92;69.32;95697.59;4919015;29;20048;-80
2023/04/13 06:19:56;;;;;;;3.20;1.77;;;;;;;8.02;70.77;95698.91;4917458;29;20431;-79
2023/04/13 06:22:23;;;;;;;1.83;1.40;;;;;;;8.12;70.18;95693.38;4918976;29;20078;-78
2023/04/13 06:24:51;;;;;;;3.88;1.88;;;;;;;8.24;71.58;95696.25;4918658;29;20052;-79
2023/04/13 06:27:19;;;;;;;3.60;1.40;;;;;;;8.28;69.02;95697.47;4918736;29;20052;-79
2023/04/13 06:29:46;;;;;;;2.13;0.65;;;;;;;8.35;70.53;95689.72;4918716;29;20527;-79
2023/04/13 06:32:14;;;;;;;4.25;0.70;;;;;;;8.43;69.47;95695.59;4918444;29;20067;-79
2023/04/13 06:34:44;;;;;;;2.78;0.70;;;;;;;8.48;69.88;95699.44;4918598;29;20068;-78
2023/04/13 06:37:13;;;;;;;3.10;0.50;;;;;;;8.52;68.98;95698.84;4919001;29;20052;-78
2023/04/13 06:39:41;;;;;;;1.67;0.68;;;;;;;8.58;66.45;95692.09;4918660;29;20143;-79
2023/04/13 06:42:08;;;;;;;5.00;0.95;;;;;;;8.60;66.33;95700.50;4917996;29;20052;-78
2023/04/13 06:44:36;;;;;;;3.97;1.15;;;;;;;8.62;65.91;95694.13;4918400;29;20052;-78
2023/04/13 06:47:04;;;;;;;3.80;0.82;;;;;;;8.60;65.01;95690.91;4917876;29;20055;-78
2023/04/13 06:49:32;;;;;;;2.88;1.00;;;;;;;8.59;66.99;95699.72;4918123;29;20059;-78
2023/04/13 06:52:00;;;;;;;3.90;0.60;;;;;;;8.65;68.74;95703.34;4917710;29;20083;-78
2023/04/13 06:54:29;;;;;;;2.25;0.80;;;;;;;8.68;68.74;95697.78;4918111;29;20054;-78
2023/04/13 06:56:57;;;;;;;3.45;1.27;;;;;;;8.69;66.51;95703.75;4917960;29;20123;-78
2023/04/13 06:59:24;;;;;;;2.58;0.52;;;;;;;8.70;65.93;95708.75;4917911;29;20080;-79
2023/04/13 07:01:52;;;;;;;4.88;1.23;;;;;;;8.68;64.18;95700.38;4917860;29;20059;-79
2023/04/13 07:04:20;;;;;;;4.47;0.88;;;;;;;8.65;63.41;95705.94;4917649;29;20127;-78
2023/04/13 07:06:47;;;;;;;4.38;0.80;;;;;;;8.62;63.93;95703.72;4917493;29;20148;-79
2023/04/13 07:09:15;;;;;;;2.33;0.82;;;;;;;8.61;62.97;95700.31;4917989;29;20428;-78
2023/04/13 07:11:45;;;;;;;2.72;0.70;;;;;;;8.58;62.36;95702.50;4917680;29;20059;-79
2023/04/13 07:14:12;;;;;;;5.20;0.60;;;;;;;8.60;61.57;95708.31;4917622;29;20056;-78
2023/04/13 07:16:40;;;;;;;2.75;0.75;;;;;;;8.57;60.74;95701.72;4917567;29;20056;-79
2023/04/13 07:19:07;;;;;;;3.35;0.70;;;;;;;8.55;61.23;95701.09;4917723;29;20420;-78
2023/04/13 07:21:35;;;;;;;4.22;0.50;;;;;;;8.57;61.29;95706.91;4917713;29;20052;-79
2023/04/13 07:24:02;;;;;;;3.67;0.75;;;;;;;8.61;63.81;95710.69;4917250;29;20048;-79
2023/04/13 07:26:30;;;;;;;1.65;0.50;;;;;;;8.64;62.02;95707.75;4917642;29;20138;-79
2023/04/13 07:28:59;;;;;;;3.70;0.82;;;;;;;8.60;61.24;95701.31;4917561;29;20055;-79
2023/04/13 07:31:27;;;;;;;3.75;0.75;;;;;;;8.60;61.65;95713.50;4917141;29;20066;-79
2023/04/13 07:33:55;;;;;;;2.97;0.60;;;;;;;8.62;62.19;95706.34;4917086;29;20503;-78
2023/04/13 07:36:23;;;;;;;3.05;0.93;;;;;;;8.61;62.08;95713.31;4917242;29;20107;-78
2023/04/13 07:38:50;;;;;;;1.48;0.65;;;;;;;8.66;64.96;95720.56;4917387;29;20059;-78
2023/04/13 07:41:21;;;;;;;1.23;0.70;;;;;;;8.69;65.60;95714.97;4917433;29;20056;-79
2023/04/13 07:43:48;;;;;;;4.63;1.40;;;;;;;8.72;63.57;95717.16;4916937;29;20099;-78
2023/04/13 07:46:19;;;;;;;5.65;0.73;;;;;;;8.73;66.33;95715.41;4917057;29;20087;-79
2023/04/13 07:48:46;;;;;;;2.25;0.80;;;;;;;8.75;66.05;95722.00;4917396;29;20059;-79
2023/04/13 07:51:17;;;;;;;6.00;1.85;;;;;;;8.74;64.10;95722.97;4917245;29;20063;-78
2023/04/13 07:53:45;;;;;;;2.28;0.70;;;;;;;8.73;62.72;95718.78;4917149;29;20084;-78
2023/04/13 07:56:13;;;;;;;1.90;0.70;;;;;;;8.69;61.25;95719.38;4917463;29;20067;-79
2023/04/13 07:58:41;;;;;;;2.00;0.60;;;;;;;8.66;62.83;95721.34;4928413;29;20123;-79
2023/04/13 08:01:09;;;;;;;2.47;0.80;;;;;;;8.70;64.78;95723.56;4931341;29;20052;-79
2023/04/13 08:03:38;;;;;;;2.05;0.80;;;;;;;8.71;63.12;95730.38;4921629;29;20135;-78
2023/04/13 08:06:06;;;;;;;3.03;0.98;;;;;;;8.75;63.91;95726.41;4917383;29;20484;-78
2023/04/13 08:08:34;;;;;;;1.90;0.60;;;;;;;8.79;61.75;95728.44;4917010;29;20052;-78
2023/04/13 08:11:02;;;;;;;2.58;0.80;;;;;;;8.86;62.42;95731.84;4916670;29;20067;-78
2023/04/13 08:13:30;;;;;;;3.42;0.55;;;;;;;9.01;62.95;95723.94;4916236;29;20059;-79
2023/04/13 08:15:59;;;;;;;4.47;1.17;;;;;;;9.14;64.64;95730.19;4916704;29;20058;-79
2023/04/13 08:18:27;;;;;;;2.25;0.70;;;;;;;9.21;65.06;95728.44;4916677;29;20571;-78
2023/04/13 08:20:56;;;;;;;4.43;1.15;;;;;;;9.26;65.71;95731.25;4916591;29;20135;-78
2023/04/13 08:23:24;;;;;;;4.55;1.25;;;;;;;9.30;65.83;95731.66;4916441;29;20059;-79
2023/04/13 08:25:51;;;;;;;3.45;0.70;;;;;;;9.29;65.19;95736.03;4916818;29;20051;-79
2023/04/13 08:28:19;;;;;;;1.95;0.73;;;;;;;9.28;63.75;95739.66;4916709;29;20048;-79
2023/04/13 08:30:47;;;;;;;3.40;0.75;;;;;;;9.29;64.77;95738.66;4916480;29;20055;-79
2023/04/13 08:33:14;;;;;;;3.08;1.08;;;;;;;9.29;64.36;95736.03;4916328;29;20059;-79
2023/04/13 08:35:42;;;;;;;3.50;1.60;;;;;;;9.30;64.42;95742.06;4916294;29;20064;-78
2023/04/13 08:38:11;;;;;;;4.82;0.60;;;;;;;9.28;60.67;95747.47;4916216;29;20088;-78
2023/04/13 08:40:40;;;;;;;2.53;0.70;;;;;;;9.30;61.25;95758.47;4915860;29;20487;-79
2023/04/13 08:43:08;;;;;;;3.28;0.80;;;;;;;9.33;61.23;95745.06;4915151;29;20523;-79
2023/04/13 08:45:36;;;;;;;1.35;0.77;;;;;;;9.41;62.04;95750.09;4916558;29;20087;-78
2023/04/13 08:48:04;;;;;;;2.88;0.85;;;;;;;9.53;61.46;95750.34;4915970;29;20056;-78
2023/04/13 08:50:31;;;;;;;2.53;0.90;;;;;;;9.65;61.65;95751.38;4916059;29;20147;-78
2023/04/13 08:52:59;;;;;;;3.28;1.02;;;;;;;9.78;60.64;95745.41;4915852;29;20058;-78
2023/04/13 08:55:28;;;;;;;3.35;0.70;;;;;;;9.88;60.55;95751.06;4916204;29;20054;-78
2023/04/13 08:57:58;;;;;;;4.25;0.95;;;;;;;10.00;60.28;95746.03;4915738;29;20060;-79
2023/04/13 09:00:26;;;;;;;4.90;0.75;;;;;;;10.13;59.22;95741.84;4916047;29;20052;-79
2023/04/13 09:02:59;;;;;;;3.15;0.70;;;;;;;10.64;55.33;95741.25;4915660;29;20056;-79
2023/04/13 09:05:39;;;;;;;2.38;0.82;;;;;;;11.13;58.80;95747.78;4916314;29;20604;-79
2023/04/13 09:08:07;;;;;;;3.60;0.93;;;;;;;11.34;54.45;95744.88;4916127;29;20056;-79
2023/04/13 09:10:36;;;;;;;5.82;1.45;;;;;;;11.46;55.84;95745.03;4915812;29;20088;-78
2023/04/13 09:13:04;;;;;;;6.88;1.38;;;;;;;11.56;56.41;95741.97;4915731;29;20052;-79
2023/04/13 09:15:32;;;;;;;4.15;1.15;;;;;;;11.87;55.08;95743.00;4916262;29;20108;-78
2023/04/13 09:18:08;;;;;;;4.13;0.80;;;;;;;11.94;56.15;95749.81;4915672;29;20056;-79
2023/04/13 09:20:36;;;;;;;1.08;0.60;;;;;;;11.95;56.56;95743.56;4916793;29;20051;-79
2023/04/13 09:23:12;;;;;;;3.00;0.82;;;;;;;12.00;54.40;95750.78;4915637;29;20056;-79
2023/04/13 09:25:41;;;;;;;2.50;0.90;;;;;;;11.95;55.25;95746.19;4915898;29;20098;-79
2023/04/13 09:28:16;;;;;;;2.55;1.05;;;;;;;11.82;54.36;95746.25;4915842;29;20052;-78
2023/04/13 09:30:43;;;;;;;2.53;0.90;;;;;;;11.64;55.83;95743.53;4916275;29;20056;-78
2023/04/13 09:33:12;;;;;;;1.52;0.80;;;;;;;11.45;55.01;95740.00;4915494;29;20108;-78
2023/04/13 09:35:40;;;;;;;2.60;0.90;;;;;;;11.29;54.03;95746.50;4916039;29;20142;-79
2023/04/13 09:38:10;;;;;;;4.22;1.20;;;;;;;11.16;56.37;95742.13;4915735;29;20055;-78
2023/04/13 09:40:49;;;;;;;5.13;1.20;;;;;;;11.11;56.20;95750.59;4915858;29;20076;-79
2023/04/13 09:43:16;;;;;;;4.35;1.08;;;;;;;11.10;55.96;95743.75;4915645;29;20127;-79
2023/04/13 09:45:44;;;;;;;4.07;1.25;;;;;;;11.10;55.42;95746.34;4915732;29;20052;-79
2023/04/13 10:00:20;;;;;;;4.50;1.00;;;;;;;10.97;53.54;95717.69;5359153;23;20134;-78
2023/04/13 10:02:49;;;;;;;4.72;0.70;;;;;;;10.93;53.30;95721.72;4997117;28;20057;-80
2023/04/13 14:12:38;;;;;;;3.90;0.80;;;;;;;12.14;54.67;95713.09;4993253;23;20045;-78
2023/04/13 14:15:06;;;;;;;2.50;1.08;;;;;;;12.09;56.77;95709.50;5015260;28;20516;-76
2023/04/13 14:17:34;;;;;;;3.67;1.20;;;;;;;12.08;57.35;95707.91;5034949;28;20128;-76
2023/04/13 14:20:05;;;;;;;3.95;1.00;;;;;;;12.03;55.72;95703.31;5039513;28;20126;-76
2023/04/13 14:22:32;;;;;;;4.32;0.90;;;;;;;11.99;56.78;95699.53;5048161;28;20069;-77
2023/04/13 14:25:00;;;;;;;2.15;0.85;;;;;;;12.05;57.20;95700.50;5045359;28;20132;-76
2023/04/13 14:27:28;;;;;;;1.98;0.55;;;;;;;12.07;56.80;95706.28;5036024;28;20076;-76
2023/04/13 14:29:56;;;;;;;1.90;0.43;;;;;;;12.06;58.19;95709.94;5035467;28;20060;-79
2023/04/13 14:32:24;;;;;;;1.48;0.50;;;;;;;12.10;58.01;95700.66;5034230;28;20052;-76
2023/04/13 14:34:52;;;;;;;1.75;0.60;;;;;;;12.10;58.04;95711.91;5034686;28;20053;-76
2023/04/13 14:37:20;;;;;;;1.13;0.57;;;;;;;12.11;56.42;95704.84;5034518;28;20548;-76
2023/04/13 14:39:48;;;;;;;1.30;0.35;;;;;;;12.06;57.89;95705.50;5033905;28;20045;-76
2023/04/13 14:42:16;;;;;;;2.10;0.70;;;;;;;12.07;57.87;95707.13;5034278;28;20053;-77
2023/04/13 14:44:43;;;;;;;5.65;0.82;;;;;;;12.08;56.76;95707.91;5034522;28;20136;-78
2023/04/13 14:47:14;;;;;;;3.45;0.85;;;;;;;12.06;55.20;95704.72;5034229;28;20057;-78
2023/04/13 14:49:42;;;;;;;3.22;0.80;;;;;;;12.05;55.76;95703.13;5034380;28;20045;-78
2023/04/13 14:52:10;;;;;;;3.63;1.58;;;;;;;12.05;58.41;95697.88;5033978;28;20045;-76
2023/04/13 14:54:37;;;;;;;4.60;1.05;;;;;;;12.04;56.80;95704.13;5034110;28;20060;-76
2023/04/13 14:57:05;;;;;;;0.88;0.60;;;;;;;11.99;54.85;95709.19;5034108;28;20064;-76
2023/04/13 14:59:33;;;;;;;1.17;0.85;;;;;;;11.92;53.45;95704.00;5034038;28;20053;-76
2023/04/13 15:02:00;;;;;;;2.78;0.82;;;;;;;11.82;54.89;95706.25;5033429;28;20053;-76
2023/04/13 15:04:29;;;;;;;1.95;0.70;;;;;;;11.79;57.80;95709.28;5033742;28;20521;-76
2023/04/13 15:06:58;;;;;;;3.90;0.93;;;;;;;11.83;58.53;95713.88;5033753;28;20049;-76
2023/04/13 15:09:26;;;;;;;2.65;1.35;;;;;;;11.89;58.70;95712.25;5033734;28;20504;-75
2023/04/13 15:11:54;;;;;;;1.83;0.85;;;;;;;11.91;57.77;95713.63;5033621;28;20136;-78
2023/04/13 15:14:22;;;;;;;2.28;0.68;;;;;;;11.89;54.94;95723.50;5033428;28;20535;-78
2023/04/13 15:16:49;;;;;;;1.38;0.77;;;;;;;11.83;58.07;95719.13;5033402;28;20128;-78
2023/04/13 15:19:17;;;;;;;1.67;0.70;;;;;;;11.82;55.00;95724.53;5033702;28;20140;-78
2023/04/13 15:21:46;;;;;;;2.20;0.60;;;;;;;11.72;53.47;95731.03;5034563;28;20516;-77
2023/04/13 15:24:13;;;;;;;1.15;0.70;;;;;;;11.61;52.98;95723.03;5033467;28;20053;-78
2023/04/13 15:26:41;;;;;;;2.70;0.30;;;;;;;11.47;52.58;95727.53;5033591;28;20052;-78
2023/04/13 15:29:09;;;;;;;1.85;0.22;;;;;;;11.29;51.99;95718.59;5033500;28;20056;-79
2023/04/13 15:31:38;;;;;;;0.77;0.30;;;;;;;11.13;52.08;95722.47;5033707;28;20057;-78
2023/04/13 15:34:07;;;;;;;0.40;0.20;;;;;;;11.02;52.40;95719.69;5033237;28;20045;-78
2023/04/13 15:36:35;;;;;;;0.90;0.60;;;;;;;10.88;52.74;95711.09;5033350;28;20491;-78
2023/04/13 15:39:04;;;;;;;2.40;0.60;;;;;;;10.76;52.71;95710.13;5033208;28;20535;-78
2023/04/13 15:41:32;;;;;;;1.88;0.93;;;;;;;10.65;53.41;95712.38;5033115;28;20115;-78
2023/04/13 15:44:00;;;;;;;2.78;1.00;;;;;;;10.61;55.72;95711.16;5033264;28;20060;-78
2023/04/13 15:46:28;;;;;;;0.70;0.40;;;;;;;10.68;55.00;95719.78;5033134;28;20053;-78
2023/04/13 15:48:56;;;;;;;3.05;0.70;;;;;;;10.67;54.52;95722.56;5033165;28;20544;-78
2023/04/13 15:51:26;;;;;;;1.80;0.77;;;;;;;10.61;54.50;95716.38;5033023;28;20053;-79
2023/04/13 15:53:53;;;;;;;2.30;1.00;;;;;;;10.51;54.56;95719.38;5032865;28;20053;-77
2023/04/13 15:56:22;;;;;;;1.45;0.73;;;;;;;10.43;55.25;95724.00;5033184;28;20068;-78
2023/04/13 15:58:50;;;;;;;2.75;0.60;;;;;;;10.43;56.42;95737.03;5033312;28;20053;-78
2023/04/13 16:01:17;;;;;;;1.85;0.52;;;;;;;10.41;55.32;95744.28;5032641;28;20505;-78
2023/04/13 16:03:45;;;;;;;0.70;0.30;;;;;;;10.35;55.58;95747.69;5032540;28;20319;-78
2023/04/13 16:06:13;;;;;;;2.60;0.50;;;;;;;10.30;56.29;95746.50;5033029;28;20056;-78